sensor_id;sensor_type;location;lat;lon;timestamp;P1;durP1;ratioP1;P2;durP2;ratioP2
4642;SDS011;2334;48.710;9.622;2023-12-28T00:01:43;9.23;;;5.83;;
4642;SDS011;2334;48.710;9.622;2023-12-28T00:04:12;11.03;;;6.20;;
4642;SDS011;2334;48.710;9.622;2023-12-28T00:06:41;9.50;;;5.30;;
4642;SDS011;2334;48.710;9.622;2023-12-28T00:09:08;21.87;;;6.27;;
4642;SDS011;2334;48.710;9.622;2023-12-28T00:11:35;10.63;;;6.00;;
4642;SDS011;2334;48.710;9.622;2023-12-28T00:14:02;5.43;;;4.70;;
4642;SDS011;2334;48.710;9.622;2023-12-28T00:16:30;10.97;;;6.40;;
4642;SDS011;2334;48.710;9.622;2023-12-28T00:18:58;13.40;;;5.90;;
4642;SDS011;2334;48.710;9.622;2023-12-28T00:21:27;12.53;;;6.77;;
4642;SDS011;2334;48.710;9.622;2023-12-28T00:23:55;10.37;;;6.30;;
4642;SDS011;2334;48.710;9.622;2023-12-28T00:26:22;15.63;;;6.37;;
4642;SDS011;2334;48.710;9.622;2023-12-28T00:28:49;9.33;;;6.10;;
4642;SDS011;2334;48.710;9.622;2023-12-28T00:31:16;8.20;;;4.80;;
4642;SDS011;2334;48.710;9.622;2023-12-28T00:33:43;9.17;;;6.10;;
4642;SDS011;2334;48.710;9.622;2023-12-28T00:36:10;12.53;;;6.27;;
4642;SDS011;2334;48.710;9.622;2023-12-28T00:38:37;10.90;;;4.90;;
4642;SDS011;2334;48.710;9.622;2023-12-28T00:41:05;10.73;;;5.00;;
4642;SDS011;2334;48.710;9.622;2023-12-28T00:43:32;5.30;;;4.00;;
4642;SDS011;2334;48.710;9.622;2023-12-28T00:45:59;6.70;;;4.50;;
4642;SDS011;2334;48.710;9.622;2023-12-28T00:48:25;10.10;;;3.97;;
4642;SDS011;2334;48.710;9.622;2023-12-28T00:50:52;7.20;;;5.77;;
4642;SDS011;2334;48.710;9.622;2023-12-28T00:53:23;9.73;;;4.80;;
4642;SDS011;2334;48.710;9.622;2023-12-28T00:55:51;10.73;;;5.30;;
4642;SDS011;2334;48.710;9.622;2023-12-28T00:58:19;9.27;;;4.87;;
4642;SDS011;2334;48.710;9.622;2023-12-28T01:00:46;8.50;;;4.03;;
4642;SDS011;2334;48.710;9.622;2023-12-28T01:03:13;7.23;;;4.20;;
4642;SDS011;2334;48.710;9.622;2023-12-28T01:05:40;13.03;;;5.67;;
4642;SDS011;2334;48.710;9.622;2023-12-28T01:08:07;11.63;;;4.97;;
4642;SDS011;2334;48.710;9.622;2023-12-28T01:10:34;9.60;;;5.13;;
4642;SDS011;2334;48.710;9.622;2023-12-28T01:13:01;9.90;;;4.60;;
4642;SDS011;2334;48.710;9.622;2023-12-28T01:15:29;10.50;;;4.40;;
4642;SDS011;2334;48.710;9.622;2023-12-28T01:17:56;12.77;;;4.80;;
4642;SDS011;2334;48.710;9.622;2023-12-28T01:20:23;5.40;;;3.93;;
4642;SDS011;2334;48.710;9.622;2023-12-28T01:22:50;6.40;;;3.80;;
4642;SDS011;2334;48.710;9.622;2023-12-28T01:25:17;16.70;;;4.80;;
4642;SDS011;2334;48.710;9.622;2023-12-28T01:27:44;19.23;;;4.60;;
4642;SDS011;2334;48.710;9.622;2023-12-28T01:30:11;10.20;;;5.23;;
4642;SDS011;2334;48.710;9.622;2023-12-28T01:32:39;13.00;;;6.10;;
4642;SDS011;2334;48.710;9.622;2023-12-28T01:35:06;9.43;;;5.23;;
4642;SDS011;2334;48.710;9.622;2023-12-28T01:37:33;20.77;;;6.60;;
4642;SDS011;2334;48.710;9.622;2023-12-28T01:40:00;10.10;;;5.53;;
4642;SDS011;2334;48.710;9.622;2023-12-28T01:42:27;12.53;;;5.10;;
4642;SDS011;2334;48.710;9.622;2023-12-28T01:44:55;9.13;;;5.00;;
4642;SDS011;2334;48.710;9.622;2023-12-28T01:47:22;41.63;;;16.80;;
4642;SDS011;2334;48.710;9.622;2023-12-28T01:49:51;33.50;;;13.60;;
4642;SDS011;2334;48.710;9.622;2023-12-28T01:52:19;24.90;;;10.00;;
4642;SDS011;2334;48.710;9.622;2023-12-28T01:54:46;26.30;;;10.17;;
4642;SDS011;2334;48.710;9.622;2023-12-28T01:57:15;28.07;;;9.80;;
4642;SDS011;2334;48.710;9.622;2023-12-28T01:59:43;18.57;;;8.57;;
4642;SDS011;2334;48.710;9.622;2023-12-28T02:02:11;20.50;;;8.07;;
4642;SDS011;2334;48.710;9.622;2023-12-28T02:04:38;17.80;;;8.87;;
4642;SDS011;2334;48.710;9.622;2023-12-28T02:07:06;12.73;;;5.53;;
4642;SDS011;2334;48.710;9.622;2023-12-28T02:09:34;14.93;;;6.00;;
4642;SDS011;2334;48.710;9.622;2023-12-28T02:12:01;10.07;;;5.63;;
4642;SDS011;2334;48.710;9.622;2023-12-28T02:14:30;16.53;;;5.87;;
4642;SDS011;2334;48.710;9.622;2023-12-28T02:16:59;6.73;;;3.97;;
4642;SDS011;2334;48.710;9.622;2023-12-28T02:19:37;8.13;;;4.27;;
4642;SDS011;2334;48.710;9.622;2023-12-28T02:22:11;11.67;;;5.10;;
4642;SDS011;2334;48.710;9.622;2023-12-28T02:24:54;9.47;;;5.77;;
4642;SDS011;2334;48.710;9.622;2023-12-28T02:27:42;13.27;;;5.73;;
4642;SDS011;2334;48.710;9.622;2023-12-28T02:30:09;8.00;;;4.87;;
4642;SDS011;2334;48.710;9.622;2023-12-28T02:32:43;8.47;;;5.63;;
4642;SDS011;2334;48.710;9.622;2023-12-28T02:35:17;8.43;;;5.10;;
4642;SDS011;2334;48.710;9.622;2023-12-28T02:37:50;6.40;;;3.10;;
4642;SDS011;2334;48.710;9.622;2023-12-28T02:40:21;6.10;;;3.70;;
4642;SDS011;2334;48.710;9.622;2023-12-28T02:42:49;8.40;;;3.87;;
4642;SDS011;2334;48.710;9.622;2023-12-28T02:45:17;7.67;;;4.00;;
4642;SDS011;2334;48.710;9.622;2023-12-28T02:47:44;6.90;;;2.77;;
4642;SDS011;2334;48.710;9.622;2023-12-28T02:50:11;11.73;;;3.63;;
4642;SDS011;2334;48.710;9.622;2023-12-28T02:52:38;4.07;;;2.87;;
4642;SDS011;2334;48.710;9.622;2023-12-28T02:55:06;9.07;;;4.20;;
4642;SDS011;2334;48.710;9.622;2023-12-28T02:57:34;6.63;;;3.60;;
4642;SDS011;2334;48.710;9.622;2023-12-28T03:00:04;4.90;;;3.73;;
4642;SDS011;2334;48.710;9.622;2023-12-28T03:02:33;4.80;;;3.23;;
4642;SDS011;2334;48.710;9.622;2023-12-28T03:05:01;5.83;;;2.83;;
4642;SDS011;2334;48.710;9.622;2023-12-28T03:07:28;4.30;;;2.40;;
4642;SDS011;2334;48.710;9.622;2023-12-28T03:09:55;4.90;;;3.43;;
4642;SDS011;2334;48.710;9.622;2023-12-28T03:12:21;7.57;;;4.00;;
4642;SDS011;2334;48.710;9.622;2023-12-28T03:14:50;10.33;;;4.13;;
4642;SDS011;2334;48.710;9.622;2023-12-28T03:17:17;4.50;;;3.20;;
4642;SDS011;2334;48.710;9.622;2023-12-28T03:19:44;6.63;;;3.93;;
4642;SDS011;2334;48.710;9.622;2023-12-28T03:22:11;3.80;;;3.00;;
4642;SDS011;2334;48.710;9.622;2023-12-28T03:24:38;3.73;;;2.40;;
4642;SDS011;2334;48.710;9.622;2023-12-28T03:27:05;3.83;;;2.90;;
4642;SDS011;2334;48.710;9.622;2023-12-28T03:29:32;5.90;;;2.97;;
4642;SDS011;2334;48.710;9.622;2023-12-28T03:32:01;5.43;;;2.93;;
4642;SDS011;2334;48.710;9.622;2023-12-28T03:34:29;7.13;;;3.30;;
4642;SDS011;2334;48.710;9.622;2023-12-28T03:36:57;5.17;;;3.43;;
4642;SDS011;2334;48.710;9.622;2023-12-28T03:39:24;3.63;;;2.60;;
4642;SDS011;2334;48.710;9.622;2023-12-28T03:41:51;5.60;;;3.30;;
4642;SDS011;2334;48.710;9.622;2023-12-28T03:44:18;9.93;;;3.60;;
4642;SDS011;2334;48.710;9.622;2023-12-28T03:46:47;8.83;;;3.33;;
4642;SDS011;2334;48.710;9.622;2023-12-28T03:49:16;9.87;;;2.90;;
4642;SDS011;2334;48.710;9.622;2023-12-28T03:51:43;8.80;;;3.20;;
4642;SDS011;2334;48.710;9.622;2023-12-28T03:54:10;4.93;;;3.17;;
4642;SDS011;2334;48.710;9.622;2023-12-28T03:56:37;5.60;;;2.53;;
4642;SDS011;2334;48.710;9.622;2023-12-28T03:59:05;6.60;;;3.63;;
4642;SDS011;2334;48.710;9.622;2023-12-28T04:01:32;6.63;;;4.00;;
4642;SDS011;2334;48.710;9.622;2023-12-28T04:03:59;5.40;;;3.20;;
4642;SDS011;2334;48.710;9.622;2023-12-28T04:06:27;3.83;;;3.10;;
4642;SDS011;2334;48.710;9.622;2023-12-28T04:08:54;5.57;;;3.20;;
4642;SDS011;2334;48.710;9.622;2023-12-28T04:11:21;4.30;;;2.83;;
4642;SDS011;2334;48.710;9.622;2023-12-28T04:13:48;6.07;;;3.07;;
4642;SDS011;2334;48.710;9.622;2023-12-28T04:16:15;3.40;;;2.47;;
4642;SDS011;2334;48.710;9.622;2023-12-28T04:18:42;7.83;;;2.60;;
4642;SDS011;2334;48.710;9.622;2023-12-28T04:21:09;4.63;;;3.10;;
4642;SDS011;2334;48.710;9.622;2023-12-28T04:23:38;6.10;;;4.07;;
4642;SDS011;2334;48.710;9.622;2023-12-28T04:26:06;4.10;;;3.10;;
4642;SDS011;2334;48.710;9.622;2023-12-28T04:28:33;4.90;;;3.30;;
4642;SDS011;2334;48.710;9.622;2023-12-28T04:31:01;4.77;;;3.00;;
4642;SDS011;2334;48.710;9.622;2023-12-28T04:33:29;8.13;;;3.27;;
4642;SDS011;2334;48.710;9.622;2023-12-28T04:35:57;4.10;;;3.17;;
4642;SDS011;2334;48.710;9.622;2023-12-28T04:38:26;3.10;;;2.40;;
4642;SDS011;2334;48.710;9.622;2023-12-28T04:40:54;6.63;;;3.63;;
4642;SDS011;2334;48.710;9.622;2023-12-28T04:43:21;8.30;;;4.17;;
4642;SDS011;2334;48.710;9.622;2023-12-28T04:45:49;5.67;;;3.67;;
4642;SDS011;2334;48.710;9.622;2023-12-28T04:48:16;3.73;;;2.87;;
4642;SDS011;2334;48.710;9.622;2023-12-28T04:50:46;6.33;;;3.77;;
4642;SDS011;2334;48.710;9.622;2023-12-28T04:53:14;7.70;;;3.27;;
4642;SDS011;2334;48.710;9.622;2023-12-28T04:55:40;6.40;;;3.60;;
4642;SDS011;2334;48.710;9.622;2023-12-28T04:58:09;5.37;;;3.03;;
4642;SDS011;2334;48.710;9.622;2023-12-28T05:00:36;5.70;;;3.50;;
4642;SDS011;2334;48.710;9.622;2023-12-28T05:03:03;6.63;;;3.00;;
4642;SDS011;2334;48.710;9.622;2023-12-28T05:05:30;5.57;;;3.90;;
4642;SDS011;2334;48.710;9.622;2023-12-28T05:07:58;4.00;;;2.70;;
4642;SDS011;2334;48.710;9.622;2023-12-28T05:10:25;4.37;;;2.80;;
4642;SDS011;2334;48.710;9.622;2023-12-28T05:12:52;3.03;;;2.80;;
4642;SDS011;2334;48.710;9.622;2023-12-28T05:15:20;5.03;;;3.80;;
4642;SDS011;2334;48.710;9.622;2023-12-28T05:17:47;14.80;;;3.63;;
4642;SDS011;2334;48.710;9.622;2023-12-28T05:20:15;5.57;;;3.47;;
4642;SDS011;2334;48.710;9.622;2023-12-28T05:22:43;5.70;;;4.17;;
4642;SDS011;2334;48.710;9.622;2023-12-28T05:25:10;9.70;;;5.70;;
4642;SDS011;2334;48.710;9.622;2023-12-28T05:27:37;7.53;;;3.40;;
4642;SDS011;2334;48.710;9.622;2023-12-28T05:30:05;7.57;;;3.80;;
4642;SDS011;2334;48.710;9.622;2023-12-28T05:32:34;4.23;;;3.07;;
4642;SDS011;2334;48.710;9.622;2023-12-28T05:35:01;5.17;;;3.70;;
4642;SDS011;2334;48.710;9.622;2023-12-28T05:37:28;3.30;;;2.90;;
4642;SDS011;2334;48.710;9.622;2023-12-28T05:39:55;4.40;;;3.00;;
4642;SDS011;2334;48.710;9.622;2023-12-28T05:42:23;4.77;;;2.70;;
4642;SDS011;2334;48.710;9.622;2023-12-28T05:44:50;4.33;;;2.17;;
4642;SDS011;2334;48.710;9.622;2023-12-28T05:47:16;4.90;;;3.93;;
4642;SDS011;2334;48.710;9.622;2023-12-28T05:49:45;9.00;;;3.47;;
4642;SDS011;2334;48.710;9.622;2023-12-28T05:52:12;4.30;;;2.90;;
4642;SDS011;2334;48.710;9.622;2023-12-28T05:54:40;2.77;;;2.57;;
4642;SDS011;2334;48.710;9.622;2023-12-28T05:57:07;2.73;;;2.43;;
4642;SDS011;2334;48.710;9.622;2023-12-28T05:59:37;5.00;;;2.83;;
4642;SDS011;2334;48.710;9.622;2023-12-28T06:02:04;2.53;;;2.33;;
4642;SDS011;2334;48.710;9.622;2023-12-28T06:04:31;4.40;;;3.10;;
4642;SDS011;2334;48.710;9.622;2023-12-28T06:07:01;6.07;;;3.03;;
4642;SDS011;2334;48.710;9.622;2023-12-28T06:09:29;5.90;;;2.90;;
4642;SDS011;2334;48.710;9.622;2023-12-28T06:11:56;3.77;;;2.90;;
4642;SDS011;2334;48.710;9.622;2023-12-28T06:14:22;3.37;;;2.80;;
4642;SDS011;2334;48.710;9.622;2023-12-28T06:16:49;4.73;;;2.80;;
4642;SDS011;2334;48.710;9.622;2023-12-28T06:19:16;6.03;;;3.10;;
4642;SDS011;2334;48.710;9.622;2023-12-28T06:21:43;3.20;;;2.80;;
4642;SDS011;2334;48.710;9.622;2023-12-28T06:24:11;5.00;;;3.07;;
4642;SDS011;2334;48.710;9.622;2023-12-28T06:26:39;6.30;;;3.80;;
4642;SDS011;2334;48.710;9.622;2023-12-28T06:29:07;9.03;;;3.27;;
4642;SDS011;2334;48.710;9.622;2023-12-28T06:31:34;3.73;;;3.40;;
4642;SDS011;2334;48.710;9.622;2023-12-28T06:34:01;4.83;;;2.30;;
4642;SDS011;2334;48.710;9.622;2023-12-28T06:36:28;6.33;;;2.87;;
4642;SDS011;2334;48.710;9.622;2023-12-28T06:38:55;5.47;;;2.77;;
4642;SDS011;2334;48.710;9.622;2023-12-28T06:41:24;5.17;;;3.70;;
4642;SDS011;2334;48.710;9.622;2023-12-28T06:43:51;2.40;;;2.20;;
4642;SDS011;2334;48.710;9.622;2023-12-28T06:46:18;4.47;;;3.20;;
4642;SDS011;2334;48.710;9.622;2023-12-28T06:48:45;6.20;;;3.77;;
4642;SDS011;2334;48.710;9.622;2023-12-28T06:51:15;4.90;;;3.00;;
4642;SDS011;2334;48.710;9.622;2023-12-28T06:53:43;3.83;;;3.30;;
4642;SDS011;2334;48.710;9.622;2023-12-28T06:56:10;4.50;;;2.93;;
4642;SDS011;2334;48.710;9.622;2023-12-28T06:58:38;4.40;;;3.57;;
4642;SDS011;2334;48.710;9.622;2023-12-28T07:01:05;4.53;;;3.40;;
4642;SDS011;2334;48.710;9.622;2023-12-28T07:03:32;4.60;;;3.50;;
4642;SDS011;2334;48.710;9.622;2023-12-28T07:05:59;9.13;;;4.57;;
4642;SDS011;2334;48.710;9.622;2023-12-28T07:08:26;9.73;;;3.90;;
4642;SDS011;2334;48.710;9.622;2023-12-28T07:10:53;10.40;;;4.17;;
4642;SDS011;2334;48.710;9.622;2023-12-28T07:13:21;13.13;;;7.63;;
4642;SDS011;2334;48.710;9.622;2023-12-28T07:15:49;9.87;;;4.37;;
4642;SDS011;2334;48.710;9.622;2023-12-28T07:18:16;14.20;;;4.50;;
4642;SDS011;2334;48.710;9.622;2023-12-28T07:20:43;13.73;;;5.70;;
4642;SDS011;2334;48.710;9.622;2023-12-28T07:23:09;11.07;;;6.00;;
4642;SDS011;2334;48.710;9.622;2023-12-28T07:25:37;16.27;;;7.20;;
4642;SDS011;2334;48.710;9.622;2023-12-28T07:28:04;13.77;;;7.00;;
4642;SDS011;2334;48.710;9.622;2023-12-28T07:30:31;19.83;;;9.53;;
4642;SDS011;2334;48.710;9.622;2023-12-28T07:32:59;18.30;;;9.53;;
4642;SDS011;2334;48.710;9.622;2023-12-28T07:35:26;18.57;;;7.87;;
4642;SDS011;2334;48.710;9.622;2023-12-28T07:37:53;24.03;;;8.60;;
4642;SDS011;2334;48.710;9.622;2023-12-28T07:40:20;11.37;;;5.53;;
4642;SDS011;2334;48.710;9.622;2023-12-28T07:42:47;13.07;;;6.10;;
4642;SDS011;2334;48.710;9.622;2023-12-28T07:45:14;8.20;;;4.73;;
4642;SDS011;2334;48.710;9.622;2023-12-28T07:47:42;10.10;;;5.33;;
4642;SDS011;2334;48.710;9.622;2023-12-28T07:50:11;8.50;;;5.00;;
4642;SDS011;2334;48.710;9.622;2023-12-28T07:52:38;9.87;;;5.40;;
4642;SDS011;2334;48.710;9.622;2023-12-28T07:55:05;7.03;;;5.40;;
4642;SDS011;2334;48.710;9.622;2023-12-28T07:57:32;8.93;;;4.60;;
4642;SDS011;2334;48.710;9.622;2023-12-28T08:00:00;6.80;;;4.10;;
4642;SDS011;2334;48.710;9.622;2023-12-28T08:02:27;6.07;;;4.87;;
4642;SDS011;2334;48.710;9.622;2023-12-28T08:04:54;9.93;;;4.47;;
4642;SDS011;2334;48.710;9.622;2023-12-28T08:07:23;8.00;;;4.67;;
4642;SDS011;2334;48.710;9.622;2023-12-28T08:09:49;12.17;;;5.87;;
4642;SDS011;2334;48.710;9.622;2023-12-28T08:12:16;9.73;;;4.63;;
4642;SDS011;2334;48.710;9.622;2023-12-28T08:14:46;8.80;;;5.07;;
4642;SDS011;2334;48.710;9.622;2023-12-28T08:17:13;13.10;;;5.07;;
4642;SDS011;2334;48.710;9.622;2023-12-28T08:19:39;7.20;;;4.60;;
4642;SDS011;2334;48.710;9.622;2023-12-28T08:22:07;9.17;;;5.17;;
4642;SDS011;2334;48.710;9.622;2023-12-28T08:24:35;14.67;;;5.53;;
4642;SDS011;2334;48.710;9.622;2023-12-28T08:27:02;9.83;;;5.80;;
4642;SDS011;2334;48.710;9.622;2023-12-28T08:29:28;15.20;;;7.83;;
4642;SDS011;2334;48.710;9.622;2023-12-28T08:31:55;18.37;;;10.00;;
4642;SDS011;2334;48.710;9.622;2023-12-28T08:34:22;22.87;;;9.00;;
4642;SDS011;2334;48.710;9.622;2023-12-28T08:36:49;25.00;;;10.70;;
4642;SDS011;2334;48.710;9.622;2023-12-28T08:39:17;25.00;;;10.60;;
4642;SDS011;2334;48.710;9.622;2023-12-28T08:41:45;21.47;;;10.63;;
4642;SDS011;2334;48.710;9.622;2023-12-28T08:44:12;27.47;;;10.20;;
4642;SDS011;2334;48.710;9.622;2023-12-28T08:46:39;18.53;;;9.17;;
4642;SDS011;2334;48.710;9.622;2023-12-28T08:49:06;16.87;;;8.73;;
4642;SDS011;2334;48.710;9.622;2023-12-28T08:51:32;20.37;;;10.07;;
4642;SDS011;2334;48.710;9.622;2023-12-28T08:54:00;19.47;;;11.07;;
4642;SDS011;2334;48.710;9.622;2023-12-28T08:56:26;26.00;;;12.57;;
4642;SDS011;2334;48.710;9.622;2023-12-28T08:58:56;19.57;;;10.50;;
4642;SDS011;2334;48.710;9.622;2023-12-28T09:01:23;17.83;;;9.37;;
4642;SDS011;2334;48.710;9.622;2023-12-28T09:03:51;14.70;;;7.80;;
4642;SDS011;2334;48.710;9.622;2023-12-28T09:06:19;12.47;;;7.40;;
4642;SDS011;2334;48.710;9.622;2023-12-28T09:08:48;19.00;;;9.50;;
4642;SDS011;2334;48.710;9.622;2023-12-28T09:11:15;12.47;;;7.87;;
4642;SDS011;2334;48.710;9.622;2023-12-28T09:13:43;13.17;;;7.90;;
4642;SDS011;2334;48.710;9.622;2023-12-28T09:16:23;12.67;;;8.23;;
4642;SDS011;2334;48.710;9.622;2023-12-28T09:18:50;12.20;;;7.00;;
4642;SDS011;2334;48.710;9.622;2023-12-28T09:21:17;20.80;;;8.77;;
4642;SDS011;2334;48.710;9.622;2023-12-28T09:23:44;13.17;;;7.43;;
4642;SDS011;2334;48.710;9.622;2023-12-28T09:26:11;18.87;;;7.27;;
4642;SDS011;2334;48.710;9.622;2023-12-28T09:28:38;10.13;;;7.17;;
4642;SDS011;2334;48.710;9.622;2023-12-28T09:31:05;16.77;;;8.40;;
4642;SDS011;2334;48.710;9.622;2023-12-28T09:33:34;9.73;;;5.70;;
4642;SDS011;2334;48.710;9.622;2023-12-28T09:36:02;11.60;;;6.70;;
4642;SDS011;2334;48.710;9.622;2023-12-28T09:38:33;10.77;;;6.90;;
4642;SDS011;2334;48.710;9.622;2023-12-28T09:41:06;15.10;;;8.30;;
4642;SDS011;2334;48.710;9.622;2023-12-28T09:43:37;21.73;;;9.33;;
4642;SDS011;2334;48.710;9.622;2023-12-28T09:46:11;12.20;;;7.50;;
4642;SDS011;2334;48.710;9.622;2023-12-28T09:48:39;14.37;;;6.90;;
4642;SDS011;2334;48.710;9.622;2023-12-28T09:51:07;16.67;;;8.60;;
4642;SDS011;2334;48.710;9.622;2023-12-28T09:53:37;14.23;;;7.60;;
4642;SDS011;2334;48.710;9.622;2023-12-28T09:56:04;23.40;;;9.30;;
4642;SDS011;2334;48.710;9.622;2023-12-28T09:58:32;17.53;;;8.33;;
4642;SDS011;2334;48.710;9.622;2023-12-28T10:01:01;21.03;;;11.33;;
4642;SDS011;2334;48.710;9.622;2023-12-28T10:03:29;14.23;;;7.07;;
4642;SDS011;2334;48.710;9.622;2023-12-28T10:05:57;9.83;;;6.77;;
4642;SDS011;2334;48.710;9.622;2023-12-28T10:08:24;20.80;;;8.30;;
4642;SDS011;2334;48.710;9.622;2023-12-28T10:10:51;16.80;;;6.40;;
4642;SDS011;2334;48.710;9.622;2023-12-28T10:13:19;17.00;;;8.13;;
4642;SDS011;2334;48.710;9.622;2023-12-28T10:15:46;16.70;;;7.80;;
4642;SDS011;2334;48.710;9.622;2023-12-28T10:18:14;10.00;;;6.47;;
4642;SDS011;2334;48.710;9.622;2023-12-28T10:20:47;11.83;;;6.80;;
4642;SDS011;2334;48.710;9.622;2023-12-28T10:23:16;14.87;;;8.93;;
4642;SDS011;2334;48.710;9.622;2023-12-28T10:25:43;14.43;;;7.37;;
4642;SDS011;2334;48.710;9.622;2023-12-28T10:28:11;10.90;;;7.10;;
4642;SDS011;2334;48.710;9.622;2023-12-28T10:30:38;10.10;;;6.30;;
4642;SDS011;2334;48.710;9.622;2023-12-28T10:33:06;11.97;;;6.57;;
4642;SDS011;2334;48.710;9.622;2023-12-28T10:35:33;13.47;;;7.37;;
4642;SDS011;2334;48.710;9.622;2023-12-28T10:38:00;21.00;;;10.70;;
4642;SDS011;2334;48.710;9.622;2023-12-28T10:40:30;23.23;;;11.70;;
4642;SDS011;2334;48.710;9.622;2023-12-28T10:42:57;19.50;;;11.00;;
4642;SDS011;2334;48.710;9.622;2023-12-28T10:45:26;21.73;;;10.17;;
4642;SDS011;2334;48.710;9.622;2023-12-28T10:47:59;21.80;;;10.20;;
4642;SDS011;2334;48.710;9.622;2023-12-28T10:50:31;16.20;;;8.80;;
4642;SDS011;2334;48.710;9.622;2023-12-28T10:53:05;15.83;;;8.47;;
4642;SDS011;2334;48.710;9.622;2023-12-28T10:55:45;16.87;;;9.03;;
4642;SDS011;2334;48.710;9.622;2023-12-28T10:58:19;19.93;;;9.73;;
4642;SDS011;2334;48.710;9.622;2023-12-28T11:00:53;23.67;;;11.13;;
4642;SDS011;2334;48.710;9.622;2023-12-28T11:03:26;17.93;;;10.73;;
4642;SDS011;2334;48.710;9.622;2023-12-28T11:05:56;15.90;;;9.30;;
4642;SDS011;2334;48.710;9.622;2023-12-28T11:08:24;12.90;;;7.27;;
4642;SDS011;2334;48.710;9.622;2023-12-28T11:10:52;9.93;;;6.20;;
4642;SDS011;2334;48.710;9.622;2023-12-28T11:13:20;12.50;;;6.20;;
4642;SDS011;2334;48.710;9.622;2023-12-28T11:15:47;12.73;;;7.20;;
4642;SDS011;2334;48.710;9.622;2023-12-28T11:18:16;14.27;;;7.30;;
4642;SDS011;2334;48.710;9.622;2023-12-28T11:20:43;13.83;;;7.57;;
4642;SDS011;2334;48.710;9.622;2023-12-28T11:23:11;14.30;;;8.07;;
4642;SDS011;2334;48.710;9.622;2023-12-28T11:25:38;17.27;;;8.93;;
4642;SDS011;2334;48.710;9.622;2023-12-28T11:28:10;15.97;;;8.03;;
4642;SDS011;2334;48.710;9.622;2023-12-28T11:30:41;13.50;;;8.67;;
4642;SDS011;2334;48.710;9.622;2023-12-28T11:33:09;17.63;;;9.00;;
4642;SDS011;2334;48.710;9.622;2023-12-28T11:35:38;13.87;;;7.50;;
4642;SDS011;2334;48.710;9.622;2023-12-28T11:38:06;13.47;;;7.90;;
4642;SDS011;2334;48.710;9.622;2023-12-28T11:40:41;19.63;;;9.27;;
4642;SDS011;2334;48.710;9.622;2023-12-28T11:43:17;15.60;;;8.87;;
4642;SDS011;2334;48.710;9.622;2023-12-28T11:45:49;19.77;;;10.40;;
4642;SDS011;2334;48.710;9.622;2023-12-28T11:48:23;13.00;;;7.77;;
4642;SDS011;2334;48.710;9.622;2023-12-28T11:50:51;16.20;;;9.00;;
4642;SDS011;2334;48.710;9.622;2023-12-28T11:53:20;16.40;;;8.90;;
4642;SDS011;2334;48.710;9.622;2023-12-28T11:55:48;15.80;;;9.10;;
4642;SDS011;2334;48.710;9.622;2023-12-28T11:58:17;16.57;;;8.63;;
4642;SDS011;2334;48.710;9.622;2023-12-28T12:00:44;20.40;;;12.10;;
4642;SDS011;2334;48.710;9.622;2023-12-28T12:03:11;17.40;;;9.87;;
4642;SDS011;2334;48.710;9.622;2023-12-28T12:05:38;17.53;;;9.33;;
4642;SDS011;2334;48.710;9.622;2023-12-28T12:08:05;16.03;;;8.20;;
4642;SDS011;2334;48.710;9.622;2023-12-28T12:10:35;20.47;;;8.17;;
4642;SDS011;2334;48.710;9.622;2023-12-28T12:13:02;14.17;;;8.27;;
4642;SDS011;2334;48.710;9.622;2023-12-28T12:15:30;21.83;;;8.70;;
4642;SDS011;2334;48.710;9.622;2023-12-28T12:17:58;16.00;;;8.50;;
4642;SDS011;2334;48.710;9.622;2023-12-28T12:20:26;15.37;;;8.07;;
4642;SDS011;2334;48.710;9.622;2023-12-28T12:22:56;20.37;;;8.53;;
4642;SDS011;2334;48.710;9.622;2023-12-28T12:25:24;17.97;;;8.77;;
4642;SDS011;2334;48.710;9.622;2023-12-28T12:27:51;19.00;;;8.00;;
4642;SDS011;2334;48.710;9.622;2023-12-28T12:30:18;14.80;;;8.13;;
4642;SDS011;2334;48.710;9.622;2023-12-28T12:32:47;13.83;;;7.67;;
4642;SDS011;2334;48.710;9.622;2023-12-28T12:35:14;26.20;;;10.77;;
4642;SDS011;2334;48.710;9.622;2023-12-28T12:37:42;61.03;;;17.87;;
4642;SDS011;2334;48.710;9.622;2023-12-28T12:40:10;37.23;;;14.57;;
4642;SDS011;2334;48.710;9.622;2023-12-28T12:42:40;26.57;;;11.93;;
4642;SDS011;2334;48.710;9.622;2023-12-28T12:45:07;25.20;;;11.27;;
4642;SDS011;2334;48.710;9.622;2023-12-28T12:47:34;16.00;;;9.17;;
4642;SDS011;2334;48.710;9.622;2023-12-28T12:50:03;21.30;;;10.00;;
4642;SDS011;2334;48.710;9.622;2023-12-28T12:52:31;18.67;;;9.17;;
4642;SDS011;2334;48.710;9.622;2023-12-28T12:54:58;27.73;;;12.40;;
4642;SDS011;2334;48.710;9.622;2023-12-28T12:57:25;19.87;;;10.30;;
4642;SDS011;2334;48.710;9.622;2023-12-28T12:59:52;16.90;;;10.60;;
4642;SDS011;2334;48.710;9.622;2023-12-28T13:02:21;29.93;;;10.87;;
4642;SDS011;2334;48.710;9.622;2023-12-28T13:04:51;24.33;;;11.30;;
4642;SDS011;2334;48.710;9.622;2023-12-28T13:07:20;29.13;;;11.87;;
4642;SDS011;2334;48.710;9.622;2023-12-28T13:09:46;22.93;;;11.00;;
4642;SDS011;2334;48.710;9.622;2023-12-28T13:12:13;21.83;;;12.10;;
4642;SDS011;2334;48.710;9.622;2023-12-28T13:14:40;22.27;;;12.30;;
4642;SDS011;2334;48.710;9.622;2023-12-28T13:17:09;20.73;;;11.33;;
4642;SDS011;2334;48.710;9.622;2023-12-28T13:19:36;18.53;;;10.77;;
4642;SDS011;2334;48.710;9.622;2023-12-28T13:22:03;23.83;;;11.57;;
4642;SDS011;2334;48.710;9.622;2023-12-28T13:24:31;19.93;;;10.50;;
4642;SDS011;2334;48.710;9.622;2023-12-28T13:26:58;18.43;;;10.43;;
4642;SDS011;2334;48.710;9.622;2023-12-28T13:29:25;26.80;;;12.23;;
4642;SDS011;2334;48.710;9.622;2023-12-28T13:31:52;22.30;;;12.57;;
4642;SDS011;2334;48.710;9.622;2023-12-28T13:34:19;31.63;;;15.33;;
4642;SDS011;2334;48.710;9.622;2023-12-28T13:36:46;31.83;;;16.17;;
4642;SDS011;2334;48.710;9.622;2023-12-28T13:39:13;38.90;;;15.53;;
4642;SDS011;2334;48.710;9.622;2023-12-28T13:41:41;35.03;;;14.40;;
4642;SDS011;2334;48.710;9.622;2023-12-28T13:44:08;32.97;;;14.53;;
4642;SDS011;2334;48.710;9.622;2023-12-28T13:46:37;33.57;;;15.20;;
4642;SDS011;2334;48.710;9.622;2023-12-28T13:49:04;30.40;;;14.17;;
4642;SDS011;2334;48.710;9.622;2023-12-28T13:51:32;30.27;;;14.10;;
4642;SDS011;2334;48.710;9.622;2023-12-28T13:53:59;31.30;;;13.93;;
4642;SDS011;2334;48.710;9.622;2023-12-28T13:56:26;34.97;;;14.40;;
4642;SDS011;2334;48.710;9.622;2023-12-28T13:58:54;32.97;;;13.00;;
4642;SDS011;2334;48.710;9.622;2023-12-28T14:01:21;36.00;;;14.83;;
4642;SDS011;2334;48.710;9.622;2023-12-28T14:03:48;27.23;;;13.13;;
4642;SDS011;2334;48.710;9.622;2023-12-28T14:06:16;35.73;;;16.20;;
4642;SDS011;2334;48.710;9.622;2023-12-28T14:08:44;29.87;;;14.00;;
4642;SDS011;2334;48.710;9.622;2023-12-28T14:11:11;33.87;;;14.23;;
4642;SDS011;2334;48.710;9.622;2023-12-28T14:13:38;26.60;;;12.73;;
4642;SDS011;2334;48.710;9.622;2023-12-28T14:16:06;28.63;;;12.40;;
4642;SDS011;2334;48.710;9.622;2023-12-28T14:18:34;33.50;;;15.73;;
4642;SDS011;2334;48.710;9.622;2023-12-28T14:21:01;56.27;;;17.00;;
4642;SDS011;2334;48.710;9.622;2023-12-28T14:23:28;43.13;;;16.67;;
4642;SDS011;2334;48.710;9.622;2023-12-28T14:25:56;32.93;;;16.10;;
4642;SDS011;2334;48.710;9.622;2023-12-28T14:28:24;33.10;;;14.10;;
4642;SDS011;2334;48.710;9.622;2023-12-28T14:30:51;27.90;;;14.73;;
4642;SDS011;2334;48.710;9.622;2023-12-28T14:33:21;25.97;;;14.20;;
4642;SDS011;2334;48.710;9.622;2023-12-28T14:35:48;27.13;;;14.97;;
4642;SDS011;2334;48.710;9.622;2023-12-28T14:38:15;33.70;;;15.80;;
4642;SDS011;2334;48.710;9.622;2023-12-28T14:40:42;33.90;;;15.87;;
4642;SDS011;2334;48.710;9.622;2023-12-28T14:43:09;30.13;;;15.53;;
4642;SDS011;2334;48.710;9.622;2023-12-28T14:45:36;32.03;;;16.10;;
4642;SDS011;2334;48.710;9.622;2023-12-28T14:48:03;35.53;;;14.70;;
4642;SDS011;2334;48.710;9.622;2023-12-28T14:50:32;25.27;;;13.97;;
4642;SDS011;2334;48.710;9.622;2023-12-28T14:52:59;26.00;;;12.10;;
4642;SDS011;2334;48.710;9.622;2023-12-28T14:55:26;27.03;;;13.87;;
4642;SDS011;2334;48.710;9.622;2023-12-28T14:57:53;32.60;;;14.13;;
4642;SDS011;2334;48.710;9.622;2023-12-28T15:00:20;24.67;;;12.67;;
4642;SDS011;2334;48.710;9.622;2023-12-28T15:02:47;19.10;;;10.97;;
4642;SDS011;2334;48.710;9.622;2023-12-28T15:05:14;23.83;;;11.00;;
4642;SDS011;2334;48.710;9.622;2023-12-28T15:07:42;23.47;;;11.60;;